Time;durP1;ratioP1;P1;durP2;ratioP2;P2;SDS_P1;SDS_P2;PMS_P1;PMS_P2;Temp;Humidity;BMP_temperature;BMP_pressure;BME280_temperature;BME280_humidity;BME280_pressure;Samples;Min_cycle;Max_cycle;Signal;HPM_P1;HPM_P2
2021/10/12 00:00:22;;;;;;;21.40;8.70;;;;;;;8.81;100.00;102564.91;5221875;28;20021;-72
2021/10/12 00:02:53;;;;;;;23.42;7.82;;;;;;;8.82;100.00;102560.41;5221908;28;20043;-72
2021/10/12 00:05:23;;;;;;;23.98;8.48;;;;;;;8.80;100.00;102571.22;5221854;28;20047;-71
2021/10/12 00:07:54;;;;;;;25.67;8.48;;;;;;;8.80;100.00;102562.34;5221639;28;20037;-72
2021/10/12 00:10:24;;;;;;;37.53;8.57;;;;;;;8.80;100.00;102543.59;5221675;28;20020;-72
2021/10/12 00:12:55;;;;;;;27.17;9.10;;;;;;;8.78;100.00;102543.69;5221849;28;20035;-72
2021/10/12 00:15:25;;;;;;;23.05;8.63;;;;;;;8.79;100.00;102552.63;5221502;28;20029;-72
2021/10/12 00:17:56;;;;;;;23.67;8.55;;;;;;;8.87;100.00;102560.06;5221940;28;20438;-72
2021/10/12 00:20:26;;;;;;;30.48;8.85;;;;;;;8.84;100.00;102563.84;5221488;28;20428;-72
2021/10/12 00:22:57;;;;;;;28.10;8.02;;;;;;;8.84;100.00;102554.94;5221678;28;20028;-73
2021/10/12 00:25:28;;;;;;;25.08;9.00;;;;;;;8.82;100.00;102545.19;5221691;28;20100;-73
2021/10/12 00:27:58;;;;;;;20.35;8.00;;;;;;;8.79;100.00;102537.41;5220730;28;20025;-73
2021/10/12 00:30:29;;;;;;;23.05;8.18;;;;;;;8.79;100.00;102539.22;5221481;28;20470;-73
2021/10/12 00:32:59;;;;;;;26.73;8.82;;;;;;;8.79;100.00;102536.56;5221181;28;20410;-73
2021/10/12 00:35:30;;;;;;;30.15;9.02;;;;;;;8.76;100.00;102536.78;5220416;28;20028;-73
2021/10/12 00:38:00;;;;;;;26.10;8.60;;;;;;;8.73;100.00;102535.16;5221637;28;20025;-73
2021/10/12 00:40:31;;;;;;;27.75;9.32;;;;;;;8.71;100.00;102536.25;5236526;28;20068;-72
2021/10/12 00:43:01;;;;;;;23.67;8.98;;;;;;;8.70;100.00;102527.38;5222229;28;20028;-73
2021/10/12 00:45:32;;;;;;;18.02;7.10;;;;;;;8.71;100.00;102539.78;5221245;28;20021;-73
2021/10/12 00:48:05;;;;;;;25.13;8.02;;;;;;;8.73;100.00;102548.53;5222202;28;20432;-73
2021/10/12 00:50:38;;;;;;;24.70;9.00;;;;;;;8.71;100.00;102546.97;5221545;28;20091;-73
2021/10/12 00:53:08;;;;;;;24.13;7.40;;;;;;;8.67;100.00;102549.00;5221527;28;20390;-72
2021/10/12 00:55:40;;;;;;;23.88;7.90;;;;;;;8.62;100.00;102529.75;5221565;28;20028;-72
2021/10/12 00:58:11;;;;;;;33.13;8.63;;;;;;;8.57;100.00;102534.59;5221511;28;20029;-73
2021/10/12 01:00:43;;;;;;;24.58;8.38;;;;;;;8.56;100.00;102524.84;5208980;28;20029;-73
2021/10/12 01:03:13;;;;;;;25.50;8.20;;;;;;;8.53;100.00;102536.66;5221371;28;20406;-72
2021/10/12 01:05:44;;;;;;;23.65;8.35;;;;;;;8.53;100.00;102530.41;5221527;28;20025;-72
2021/10/12 01:08:15;;;;;;;27.45;8.02;;;;;;;8.49;100.00;102521.78;5221094;28;20448;-73
2021/10/12 01:10:46;;;;;;;30.98;8.07;;;;;;;8.46;100.00;102519.31;5221305;28;20456;-73
2021/10/12 01:13:18;;;;;;;23.80;8.52;;;;;;;8.45;100.00;102519.44;5221407;28;20443;-73
2021/10/12 01:15:50;;;;;;;23.90;9.38;;;;;;;8.42;100.00;102508.97;5221582;28;20024;-72
2021/10/12 01:18:21;;;;;;;28.05;8.52;;;;;;;8.36;100.00;102507.59;5221364;28;20075;-73
2021/10/12 01:20:52;;;;;;;19.95;8.55;;;;;;;8.31;100.00;102499.00;5220864;28;20429;-73
2021/10/12 01:23:23;;;;;;;20.73;8.70;;;;;;;8.24;100.00;102500.44;5208235;28;20029;-73
2021/10/12 01:25:54;;;;;;;20.05;7.95;;;;;;;8.18;100.00;102503.53;5221706;28;20485;-73
2021/10/12 01:28:24;;;;;;;32.95;8.80;;;;;;;8.13;100.00;102486.97;5225215;28;20025;-73
2021/10/12 01:30:56;;;;;;;22.20;8.85;;;;;;;8.06;100.00;102481.22;5225045;28;20625;-72
2021/10/12 01:33:26;;;;;;;25.60;8.23;;;;;;;8.00;100.00;102487.00;5224580;28;20071;-73
2021/10/12 01:35:57;;;;;;;24.80;9.48;;;;;;;7.96;100.00;102477.50;5224698;28;20538;-72
2021/10/12 01:38:32;;;;;;;23.73;8.77;;;;;;;7.90;100.00;102473.44;5224715;28;20074;-73
2021/10/12 01:41:02;;;;;;;22.50;8.77;;;;;;;7.85;100.00;102470.25;5224287;28;20044;-72
2021/10/12 01:43:33;;;;;;;29.15;10.25;;;;;;;7.83;100.00;102474.84;5224565;28;20267;-72
2021/10/12 01:46:05;;;;;;;20.38;8.10;;;;;;;7.83;100.00;102469.50;5224456;28;20021;-73
2021/10/12 01:48:37;;;;;;;26.83;9.90;;;;;;;7.83;100.00;102460.59;5224496;28;20407;-72
2021/10/12 01:51:07;;;;;;;30.30;10.55;;;;;;;7.81;100.00;102459.88;5224017;28;20087;-72
2021/10/12 01:53:39;;;;;;;24.92;9.68;;;;;;;7.79;100.00;102454.66;5223999;28;20043;-73
2021/10/12 01:56:19;;;;;;;30.52;9.48;;;;;;;7.75;100.00;102450.47;5224196;28;20025;-71
2021/10/12 01:58:50;;;;;;;22.52;9.25;;;;;;;7.74;100.00;102444.28;5223884;28;20089;-71
2021/10/12 02:01:26;;;;;;;27.77;9.13;;;;;;;7.73;100.00;102439.03;5224417;28;20024;-72
2021/10/12 02:04:00;;;;;;;23.40;9.23;;;;;;;7.69;100.00;102442.91;5224180;28;20047;-72
2021/10/12 02:06:31;;;;;;;22.75;8.85;;;;;;;7.68;100.00;102443.84;5223756;28;20309;-72
2021/10/12 02:09:03;;;;;;;29.92;9.45;;;;;;;7.71;100.00;102440.97;5224180;28;20025;-73
2021/10/12 02:11:34;;;;;;;28.92;9.55;;;;;;;7.65;100.00;102444.09;5224131;28;20116;-72
2021/10/12 02:14:05;;;;;;;28.85;9.30;;;;;;;7.61;100.00;102431.91;5223991;28;20103;-72
2021/10/12 02:16:36;;;;;;;22.48;8.57;;;;;;;7.59;100.00;102426.69;5223764;28;20394;-72
2021/10/12 02:19:07;;;;;;;33.45;9.25;;;;;;;7.59;100.00;102425.81;5223257;28;20044;-73
2021/10/12 02:21:38;;;;;;;21.52;8.38;;;;;;;7.59;100.00;102421.34;5224373;28;20032;-72
2021/10/12 02:24:09;;;;;;;23.20;9.50;;;;;;;7.62;100.00;102422.91;5223820;28;20501;-74
2021/10/12 02:26:39;;;;;;;27.70;10.15;;;;;;;7.65;100.00;102425.38;5223874;28;20162;-72
2021/10/12 02:29:10;;;;;;;26.08;8.93;;;;;;;7.69;100.00;102422.38;5223492;28;20032;-73
2021/10/12 02:31:41;;;;;;;26.17;8.10;;;;;;;7.75;100.00;102431.78;5223333;28;20147;-74
2021/10/12 02:34:11;;;;;;;28.58;9.18;;;;;;;7.82;100.00;102426.84;5223996;28;20107;-72
2021/10/12 02:36:42;;;;;;;22.42;8.40;;;;;;;7.86;100.00;102429.19;5223163;28;20028;-71
2021/10/12 02:39:12;;;;;;;31.15;9.65;;;;;;;7.91;100.00;102426.19;5223188;28;20028;-73
2021/10/12 02:41:43;;;;;;;25.27;8.82;;;;;;;7.96;100.00;102419.53;5223325;28;20021;-73
2021/10/12 02:44:14;;;;;;;25.15;9.15;;;;;;;8.00;100.00;102406.81;5223777;28;20029;-74
2021/10/12 02:46:44;;;;;;;27.00;9.48;;;;;;;8.05;100.00;102404.66;5225600;28;20029;-74
2021/10/12 02:49:15;;;;;;;22.13;9.23;;;;;;;8.07;100.00;102407.22;5227896;28;20055;-71
2021/10/12 02:51:45;;;;;;;27.10;8.77;;;;;;;8.09;100.00;102405.31;5230313;28;20391;-74
2021/10/12 02:54:16;;;;;;;26.92;8.70;;;;;;;8.14;100.00;102393.31;5223272;28;20037;-73
2021/10/12 02:56:46;;;;;;;18.95;8.18;;;;;;;8.16;100.00;102393.19;5222966;28;20035;-73
2021/10/12 02:59:17;;;;;;;25.75;8.82;;;;;;;8.18;100.00;102381.44;5222955;28;20029;-73
2021/10/12 03:01:48;;;;;;;25.52;8.00;;;;;;;8.20;100.00;102384.81;5222737;28;20025;-73
2021/10/12 03:04:18;;;;;;;26.00;8.10;;;;;;;8.23;100.00;102379.25;5223024;28;20025;-74
2021/10/12 03:06:48;;;;;;;24.63;9.23;;;;;;;8.24;100.00;102370.28;5222714;28;20051;-73
2021/10/12 03:09:19;;;;;;;20.90;8.20;;;;;;;8.27;100.00;102370.03;5222483;28;20078;-73
2021/10/12 03:11:49;;;;;;;31.52;9.40;;;;;;;8.30;100.00;102363.63;5222887;28;20488;-73
2021/10/12 03:14:20;;;;;;;28.25;10.05;;;;;;;8.31;100.00;102374.19;5222791;28;20438;-73
2021/10/12 03:16:51;;;;;;;33.20;9.05;;;;;;;8.33;100.00;102371.38;5222687;28;20025;-73
2021/10/12 03:19:22;;;;;;;33.20;8.80;;;;;;;8.38;100.00;102369.25;5221983;28;20098;-72
2021/10/12 03:21:58;;;;;;;30.17;9.75;;;;;;;8.40;100.00;102363.81;5222697;28;20025;-72
2021/10/12 03:24:29;;;;;;;27.27;8.98;;;;;;;8.40;100.00;102356.63;5222718;28;20414;-72
2021/10/12 03:26:59;;;;;;;22.80;7.72;;;;;;;8.42;100.00;102360.03;5222563;28;20032;-74
2021/10/12 03:29:30;;;;;;;18.50;7.63;;;;;;;8.44;100.00;102354.59;5221937;28;20454;-73
2021/10/12 03:32:00;;;;;;;20.73;7.78;;;;;;;8.47;100.00;102346.31;5222134;28;20027;-75
2021/10/12 03:34:31;;;;;;;24.45;8.75;;;;;;;8.49;100.00;102339.91;5222207;28;20021;-73
2021/10/12 03:37:02;;;;;;;26.58;8.15;;;;;;;8.51;100.00;102345.13;5222199;28;20021;-74
2021/10/12 03:39:33;;;;;;;25.85;7.72;;;;;;;8.53;100.00;102336.03;5222209;28;20025;-74
2021/10/12 03:42:04;;;;;;;33.13;9.27;;;;;;;8.53;100.00;102336.03;5222016;28;20529;-73
2021/10/12 03:44:35;;;;;;;23.10;8.48;;;;;;;8.54;100.00;102337.72;5221805;28;20478;-73
2021/10/12 03:47:05;;;;;;;20.42;7.45;;;;;;;8.55;100.00;102347.44;5222293;28;20017;-74
2021/10/12 03:49:36;;;;;;;26.15;8.00;;;;;;;8.57;100.00;102334.81;5221253;28;20398;-73
2021/10/12 03:52:06;;;;;;;22.08;7.63;;;;;;;8.60;100.00;102327.53;5222136;28;20025;-74
2021/10/12 03:54:37;;;;;;;23.80;7.88;;;;;;;8.62;100.00;102322.91;5221735;28;20021;-72
2021/10/12 03:57:07;;;;;;;24.15;9.02;;;;;;;8.63;100.00;102322.78;5221727;28;20031;-74
2021/10/12 03:59:38;;;;;;;20.52;7.75;;;;;;;8.65;100.00;102322.69;5222177;28;20027;-73
2021/10/12 04:02:08;;;;;;;34.53;8.45;;;;;;;8.67;100.00;102320.72;5221986;28;20029;-74
2021/10/12 04:04:39;;;;;;;22.85;7.95;;;;;;;8.68;100.00;102309.03;5222274;28;20496;-75
2021/10/12 04:07:09;;;;;;;24.15;7.63;;;;;;;8.71;100.00;102308.81;5222096;28;20401;-72
2021/10/12 04:09:40;;;;;;;22.30;7.88;;;;;;;8.75;100.00;102311.16;5221347;28;20112;-73
2021/10/12 04:12:10;;;;;;;23.60;7.10;;;;;;;8.78;100.00;102312.72;5221940;28;20017;-72
2021/10/12 04:14:41;;;;;;;15.45;7.10;;;;;;;8.80;100.00;102311.66;5221792;28;20028;-74
2021/10/12 04:17:11;;;;;;;25.83;7.25;;;;;;;8.80;100.00;102302.75;5221921;28;20470;-72
2021/10/12 04:19:42;;;;;;;17.95;7.05;;;;;;;8.84;100.00;102308.75;5221460;28;20065;-74
2021/10/12 04:22:13;;;;;;;20.70;6.50;;;;;;;8.89;100.00;102310.09;5221453;28;20021;-74
2021/10/12 04:24:43;;;;;;;21.60;7.20;;;;;;;8.89;100.00;102295.84;5221682;28;20044;-73
2021/10/12 04:27:14;;;;;;;22.67;7.70;;;;;;;8.91;100.00;102309.94;5221735;28;20021;-73
2021/10/12 04:29:44;;;;;;;16.70;6.53;;;;;;;8.89;100.00;102294.03;5221416;28;20140;-72
2021/10/12 04:32:15;;;;;;;21.27;6.53;;;;;;;8.92;100.00;102299.13;5222089;28;20027;-73
2021/10/12 04:34:45;;;;;;;21.35;6.15;;;;;;;8.93;100.00;102302.66;5221370;28;20033;-74
2021/10/12 04:37:17;;;;;;;30.88;6.90;;;;;;;8.91;100.00;102292.06;5221863;28;20032;-73
2021/10/12 04:39:47;;;;;;;22.85;6.78;;;;;;;8.88;100.00;102280.75;5221410;28;20040;-73
2021/10/12 04:42:18;;;;;;;16.23;6.05;;;;;;;8.90;100.00;102286.84;5221576;28;20037;-73
2021/10/12 04:44:53;;;;;;;19.20;6.00;;;;;;;8.89;100.00;102286.00;5222286;28;20104;-73
2021/10/12 04:47:23;;;;;;;20.75;5.53;;;;;;;8.90;100.00;102282.34;5221769;28;20040;-73
2021/10/12 04:49:54;;;;;;;24.63;5.97;;;;;;;8.91;100.00;102276.00;5221867;28;20021;-73
2021/10/12 04:52:24;;;;;;;18.27;6.00;;;;;;;8.93;100.00;102279.41;5221816;28;20037;-73
2021/10/12 04:54:55;;;;;;;18.98;7.25;;;;;;;8.95;100.00;102274.81;5221544;28;20483;-73
2021/10/12 04:57:25;;;;;;;11.25;5.72;;;;;;;8.91;100.00;102277.84;5221328;28;20512;-73
2021/10/12 04:59:56;;;;;;;12.40;5.47;;;;;;;8.91;100.00;102278.69;5221483;28;20028;-73
2021/10/12 05:02:26;;;;;;;13.18;5.30;;;;;;;8.89;100.00;102269.94;5225481;28;20021;-73
2021/10/12 05:04:57;;;;;;;26.63;6.90;;;;;;;8.91;100.00;102265.31;5225504;28;20131;-73
2021/10/12 05:07:27;;;;;;;17.98;6.65;;;;;;;8.92;100.00;102268.81;5225312;28;20154;-73
2021/10/12 05:09:58;;;;;;;25.90;7.15;;;;;;;8.93;100.00;102265.16;5224529;28;20482;-73
2021/10/12 05:12:28;;;;;;;129.07;53.55;;;;;;;8.92;100.00;102267.00;5225125;28;20099;-73
2021/10/12 05:14:59;;;;;;;25.98;7.50;;;;;;;8.93;100.00;102262.50;5224974;28;20100;-73
2021/10/12 05:17:36;;;;;;;24.40;6.47;;;;;;;8.94;100.00;102257.03;5225484;28;20475;-73
2021/10/12 05:20:07;;;;;;;28.23;10.73;;;;;;;8.94;100.00;102251.69;5211742;28;20036;-74
2021/10/12 05:22:37;;;;;;;22.25;6.57;;;;;;;8.96;100.00;102254.22;5224504;28;20025;-74
2021/10/12 05:25:08;;;;;;;28.17;9.82;;;;;;;8.96;100.00;102252.41;5224702;28;20025;-73
2021/10/12 05:27:39;;;;;;;21.85;7.65;;;;;;;8.98;100.00;102255.81;5224942;28;20036;-75
2021/10/12 05:30:11;;;;;;;13.73;5.47;;;;;;;8.98;100.00;102253.13;5224647;28;20474;-73
2021/10/12 05:32:41;;;;;;;24.70;7.00;;;;;;;8.97;100.00;102253.25;5224771;28;20027;-75
2021/10/12 05:35:12;;;;;;;22.45;5.63;;;;;;;8.98;100.00;102253.13;5223299;28;20033;-73
2021/10/12 05:37:42;;;;;;;23.50;6.78;;;;;;;8.99;100.00;102252.19;5224493;28;20029;-73
2021/10/12 05:40:13;;;;;;;21.85;7.97;;;;;;;9.01;100.00;102244.00;5224408;28;20039;-73
2021/10/12 05:42:44;;;;;;;13.55;5.75;;;;;;;9.02;100.00;102249.22;5224546;28;20119;-72
2021/10/12 05:45:14;;;;;;;17.25;6.13;;;;;;;9.02;100.00;102243.88;5224305;28;20520;-74
2021/10/12 05:47:45;;;;;;;17.80;6.10;;;;;;;9.04;100.00;102233.91;5224480;28;20024;-73
2021/10/12 05:50:16;;;;;;;20.50;8.45;;;;;;;9.03;100.00;102234.88;5224282;28;20104;-73
2021/10/12 05:52:58;;;;;;;13.38;6.40;;;;;;;9.05;100.00;102240.13;5224454;28;20021;-75
2021/10/12 05:55:46;;;;;;;50.10;34.28;;;;;;;9.06;100.00;102233.78;5224370;28;20035;-74
2021/10/12 05:58:30;;;;;;;21.13;7.43;;;;;;;9.05;100.00;102224.06;5224255;28;20025;-74
2021/10/12 06:01:02;;;;;;;15.70;7.60;;;;;;;9.06;100.00;102231.13;5224006;28;20104;-72
2021/10/12 06:03:33;;;;;;;18.48;6.75;;;;;;;9.07;100.00;102220.28;5224012;28;20184;-72
2021/10/12 06:06:04;;;;;;;19.00;5.78;;;;;;;9.08;100.00;102227.31;5223955;28;20405;-74
2021/10/12 06:08:35;;;;;;;18.38;6.10;;;;;;;9.08;100.00;102230.00;5224226;28;20050;-75
2021/10/12 06:11:07;;;;;;;16.40;7.13;;;;;;;9.13;100.00;102218.06;5223968;28;20401;-74
2021/10/12 06:13:40;;;;;;;25.67;6.35;;;;;;;9.14;100.00;102223.34;5223392;28;20406;-74
2021/10/12 06:16:12;;;;;;;19.63;5.90;;;;;;;9.13;100.00;102216.25;5223760;28;20021;-74
2021/10/12 06:18:42;;;;;;;25.38;8.07;;;;;;;9.13;100.00;102213.56;5223570;28;20017;-73
2021/10/12 06:21:12;;;;;;;28.23;8.02;;;;;;;9.12;100.00;102217.22;5223203;28;20094;-73
2021/10/12 06:23:43;;;;;;;21.23;6.93;;;;;;;9.11;100.00;102223.56;5223662;28;20100;-75
2021/10/12 06:26:14;;;;;;;18.35;6.68;;;;;;;9.13;100.00;102220.75;5223510;28;20128;-76
2021/10/12 06:28:44;;;;;;;25.60;6.90;;;;;;;9.13;100.00;102218.94;5223698;28;20055;-76
2021/10/12 06:31:15;;;;;;;15.55;6.63;;;;;;;9.17;100.00;102223.06;5222797;28;20059;-75
2021/10/12 06:33:45;;;;;;;20.83;6.53;;;;;;;9.21;100.00;102221.00;5223757;28;20102;-76
2021/10/12 06:36:16;;;;;;;12.35;5.75;;;;;;;9.27;100.00;102216.00;5223367;28;20089;-76
2021/10/12 06:38:46;;;;;;;18.50;7.22;;;;;;;9.33;100.00;102217.31;5223546;28;20453;-75
2021/10/12 06:41:17;;;;;;;15.65;7.00;;;;;;;9.39;100.00;102214.16;5223063;28;20021;-75
2021/10/12 06:43:48;;;;;;;17.45;6.90;;;;;;;9.44;100.00;102211.97;5223176;28;20033;-75
2021/10/12 06:46:18;;;;;;;22.35;7.68;;;;;;;9.48;100.00;102205.34;5223180;28;20482;-75
2021/10/12 06:48:49;;;;;;;67.25;37.70;;;;;;;9.57;100.00;102206.44;5223078;28;20478;-75
2021/10/12 06:51:19;;;;;;;28.23;14.98;;;;;;;9.68;100.00;102202.84;5223550;28;20028;-74
2021/10/12 06:53:50;;;;;;;22.38;9.57;;;;;;;9.73;100.00;102196.13;5223371;28;20035;-71
2021/10/12 06:56:21;;;;;;;32.70;18.02;;;;;;;9.81;100.00;102204.38;5223384;28;20428;-71
2021/10/12 06:58:51;;;;;;;20.83;9.43;;;;;;;9.86;100.00;102212.06;5222805;28;20047;-72
2021/10/12 07:01:22;;;;;;;19.27;11.32;;;;;;;9.93;100.00;102198.97;5222658;28;20390;-72
2021/10/12 07:03:52;;;;;;;21.08;8.98;;;;;;;9.94;100.00;102206.91;5223546;28;20064;-72
2021/10/12 07:06:23;;;;;;;16.08;8.55;;;;;;;10.00;100.00;102206.38;5222925;28;20056;-71
2021/10/12 07:08:53;;;;;;;22.38;7.80;;;;;;;10.01;100.00;102205.41;5222199;28;20102;-72
2021/10/12 07:11:24;;;;;;;25.05;9.63;;;;;;;10.11;100.00;102190.22;5221647;28;20025;-71
2021/10/12 07:13:54;;;;;;;23.48;8.30;;;;;;;10.17;100.00;102193.38;5222758;28;20025;-71
2021/10/12 07:16:25;;;;;;;17.02;7.38;;;;;;;10.27;100.00;102194.31;5222420;28;20025;-72
2021/10/12 07:18:56;;;;;;;21.70;7.32;;;;;;;10.34;100.00;102192.78;5222133;28;20036;-72
2021/10/12 07:21:26;;;;;;;24.35;9.00;;;;;;;10.37;100.00;102200.59;5222321;28;20028;-72
2021/10/12 07:23:57;;;;;;;29.02;8.43;;;;;;;10.42;100.00;102195.69;5222037;28;20023;-72
2021/10/12 07:26:28;;;;;;;20.85;7.60;;;;;;;10.46;100.00;102197.13;5222383;28;20029;-72
2021/10/12 07:28:59;;;;;;;19.80;6.88;;;;;;;10.50;100.00;102195.03;5222246;28;20432;-72
2021/10/12 07:31:30;;;;;;;20.15;8.30;;;;;;;10.53;100.00;102200.13;5222706;28;20025;-72
2021/10/12 07:34:00;;;;;;;18.42;7.47;;;;;;;10.60;100.00;102193.25;5222430;28;20025;-72
2021/10/12 07:36:30;;;;;;;27.42;9.50;;;;;;;10.62;100.00;102188.59;5217744;28;20131;-72
2021/10/12 07:39:02;;;;;;;34.22;10.25;;;;;;;10.67;100.00;102188.19;5221596;28;20024;-72
2021/10/12 07:41:33;;;;;;;23.88;8.73;;;;;;;10.77;100.00;102186.38;5219973;28;20040;-72
2021/10/12 07:44:06;;;;;;;28.63;9.85;;;;;;;10.82;100.00;102174.25;5219947;28;20331;-72
2021/10/12 07:46:37;;;;;;;24.15;9.45;;;;;;;10.90;100.00;102176.28;5222987;28;20314;-72
2021/10/12 07:49:07;;;;;;;21.80;8.60;;;;;;;10.95;100.00;102174.03;5219874;28;20021;-74
2021/10/12 07:51:38;;;;;;;35.90;9.52;;;;;;;11.01;100.00;102165.44;5202398;28;20020;-74
2021/10/12 07:54:18;;;;;;;25.73;10.18;;;;;;;11.09;100.00;102165.59;5227920;28;20030;-71
2021/10/12 07:56:49;;;;;;;24.40;8.07;;;;;;;11.27;100.00;102171.13;5214616;28;20394;-71
2021/10/12 07:59:19;;;;;;;32.05;12.60;;;;;;;11.29;100.00;102160.25;5219378;28;20033;-74
2021/10/12 08:01:50;;;;;;;39.00;18.83;;;;;;;11.32;100.00;102163.50;5218781;28;20035;-75
2021/10/12 08:04:20;;;;;;;25.75;11.57;;;;;;;11.31;100.00;102164.50;5219849;28;20055;-71
2021/10/12 08:06:51;;;;;;;41.65;18.15;;;;;;;11.38;100.00;102159.41;5218975;28;20421;-71
2021/10/12 08:09:21;;;;;;;100.35;67.82;;;;;;;11.38;100.00;102156.72;5219154;28;20043;-72
2021/10/12 08:11:53;;;;;;;39.17;22.02;;;;;;;11.41;100.00;102154.63;5219379;28;20013;-72
2021/10/12 08:14:25;;;;;;;29.30;14.30;;;;;;;11.41;100.00;102153.78;5219290;28;20379;-71
2021/10/12 08:16:55;;;;;;;21.92;12.00;;;;;;;11.51;100.00;102162.69;5219115;28;20435;-71
2021/10/12 08:19:26;;;;;;;23.52;9.38;;;;;;;11.47;100.00;102157.72;5218583;28;20163;-74
2021/10/12 08:21:57;;;;;;;22.95;8.82;;;;;;;11.46;100.00;102158.72;5219072;28;20164;-72
2021/10/12 08:24:27;;;;;;;29.27;9.75;;;;;;;11.47;100.00;102160.41;5220002;28;20071;-72
2021/10/12 08:26:58;;;;;;;21.98;8.68;;;;;;;11.50;100.00;102154.78;5219991;28;20525;-74
2021/10/12 08:29:28;;;;;;;22.42;7.45;;;;;;;11.54;100.00;102157.00;5219521;28;20122;-71
2021/10/12 08:31:59;;;;;;;27.92;8.25;;;;;;;11.54;100.00;102157.00;5218591;28;20532;-71
2021/10/12 08:34:29;;;;;;;18.92;7.45;;;;;;;11.56;100.00;102147.00;5218194;28;20056;-72
2021/10/12 08:37:00;;;;;;;26.67;8.27;;;;;;;11.56;100.00;102147.00;5222566;28;20429;-71
2021/10/12 08:39:31;;;;;;;22.55;7.50;;;;;;;11.57;100.00;102148.69;5223345;28;20031;-71
2021/10/12 08:42:14;;;;;;;27.00;8.07;;;;;;;11.57;100.00;102143.31;5221537;28;20454;-71
2021/10/12 08:45:01;;;;;;;29.60;8.07;;;;;;;11.66;100.00;102147.00;5222803;28;20032;-72
2021/10/12 08:47:34;;;;;;;25.33;8.65;;;;;;;11.65;100.00;102140.78;5223296;28;20508;-72
2021/10/12 08:50:08;;;;;;;23.60;8.52;;;;;;;11.74;100.00;102149.81;5222899;28;20027;-72
2021/10/12 08:52:39;;;;;;;27.35;8.32;;;;;;;11.79;100.00;102136.78;5210689;28;20033;-72
2021/10/12 08:55:10;;;;;;;19.88;7.85;;;;;;;11.87;100.00;102125.34;5222745;28;20385;-72
2021/10/12 08:57:43;;;;;;;29.20;8.73;;;;;;;11.98;100.00;102132.41;5223326;28;20108;-72
2021/10/12 09:00:18;;;;;;;28.50;8.73;;;;;;;12.10;100.00;102126.75;5222945;28;20048;-72
2021/10/12 09:05:57;;;;;;;25.73;7.60;;;;;;;12.38;100.00;102118.72;5212469;28;20087;-72
2021/10/12 09:08:32;;;;;;;27.67;8.32;;;;;;;12.35;100.00;102110.91;5222806;28;20142;-72
2021/10/12 09:11:03;;;;;;;;;;;;;;;12.34;100.00;102114.63;5223228;28;20514;-72
2021/10/12 09:13:44;;;;;;;26.38;7.85;;;;;;;12.32;100.00;102111.25;5222938;28;19923;-73
2021/10/12 09:16:17;;;;;;;27.55;8.05;;;;;;;12.32;100.00;102111.25;5222941;28;20036;-72
2021/10/12 09:18:53;;;;;;;22.48;8.15;;;;;;;12.30;100.00;102107.81;5223237;28;20025;-73
2021/10/12 09:21:27;;;;;;;26.63;8.85;;;;;;;12.25;100.00;102102.03;5221838;28;20036;-73
2021/10/12 09:24:03;;;;;;;20.17;7.57;;;;;;;12.25;100.00;102107.41;5222400;28;20440;-72
2021/10/12 09:26:38;;;;;;;23.75;7.10;;;;;;;12.30;100.00;102099.75;5221294;28;20033;-72
2021/10/12 09:29:18;;;;;;;118.95;56.63;;;;;;;12.37;100.00;102108.94;5221310;28;20726;-72
2021/10/12 09:31:48;;;;;;;94.53;37.97;;;;;;;12.43;100.00;102097.59;5222205;28;20466;-72
2021/10/12 09:34:19;;;;;;;28.83;11.63;;;;;;;12.55;100.00;102092.84;5222579;28;20055;-73
2021/10/12 09:36:52;;;;;;;38.45;18.10;;;;;;;12.61;100.00;102093.13;5222321;28;20075;-72
2021/10/12 09:39:32;;;;;;;45.10;29.50;;;;;;;12.76;100.00;102090.78;5222623;28;20669;-72
2021/10/12 09:42:07;;;;;;;22.30;10.77;;;;;;;12.94;100.00;102102.41;5221617;28;20295;-72
2021/10/12 09:44:50;;;;;;;24.23;8.48;;;;;;;13.09;100.00;102099.22;5220723;28;20280;-72
2021/10/12 09:47:22;;;;;;;29.10;6.97;;;;;;;13.34;100.00;102081.47;5220810;28;20083;-72
2021/10/12 09:50:06;;;;;;;30.17;6.22;;;;;;;13.73;100.00;102087.38;5222014;28;20043;-72
2021/10/12 09:52:41;;;;;;;17.85;6.38;;;;;;;13.93;100.00;102085.31;5224310;28;20033;-72
2021/10/12 09:55:13;;;;;;;18.60;7.05;;;;;;;14.15;100.00;102076.69;5222246;28;20060;-72
2021/10/12 09:57:44;;;;;;;15.52;6.15;;;;;;;14.43;100.00;102077.34;5222422;28;20147;-72
2021/10/12 10:00:15;;;;;;;19.08;6.07;;;;;;;14.68;100.00;102081.03;5220527;28;20028;-73
2021/10/12 10:02:46;;;;;;;26.85;5.43;;;;;;;14.82;100.00;102073.31;5221846;28;20025;-72
2021/10/12 10:05:18;;;;;;;21.13;6.15;;;;;;;14.62;100.00;102073.59;5220578;28;20115;-72
2021/10/12 10:07:51;;;;;;;25.40;9.23;;;;;;;14.57;100.00;102070.53;5220034;28;20035;-72
2021/10/12 10:10:22;;;;;;;16.73;6.63;;;;;;;14.45;100.00;102072.63;5208372;28;20029;-72
2021/10/12 10:12:53;;;;;;;21.08;7.15;;;;;;;14.28;100.00;102067.31;5221327;28;20028;-72
2021/10/12 10:15:25;;;;;;;23.00;7.45;;;;;;;14.23;100.00;102068.66;5221604;28;20149;-72
2021/10/12 10:17:57;;;;;;;16.52;5.28;;;;;;;14.14;100.00;102063.34;5221453;28;20036;-72
2021/10/12 10:20:28;;;;;;;16.35;5.60;;;;;;;14.03;100.00;102056.38;5220566;28;20509;-72
2021/10/12 10:23:00;;;;;;;26.48;6.90;;;;;;;14.00;100.00;102057.53;5220795;28;20021;-71
2021/10/12 10:25:34;;;;;;;18.65;5.45;;;;;;;14.01;100.00;102058.41;5221893;28;20474;-72
2021/10/12 10:28:24;;;;;;;17.75;5.70;;;;;;;14.07;100.00;102056.94;5221355;28;20035;-75
2021/10/12 10:30:58;;;;;;;22.27;5.50;;;;;;;13.89;100.00;102047.03;5220327;28;20098;-72
2021/10/12 10:33:35;;;;;;;25.10;5.97;;;;;;;13.74;100.00;102038.66;5221180;28;20398;-72
2021/10/12 10:36:07;;;;;;;26.23;5.25;;;;;;;13.66;100.00;102038.63;5221350;28;20439;-72
2021/10/12 10:38:45;;;;;;;17.33;4.72;;;;;;;13.60;100.00;102041.09;5237060;28;20522;-71
2021/10/12 10:41:16;;;;;;;18.40;5.10;;;;;;;13.62;100.00;102039.94;5206184;28;20029;-72
2021/10/12 10:43:51;;;;;;;11.07;5.22;;;;;;;13.58;100.00;102038.56;5221557;28;20028;-71
2021/10/12 10:46:34;;;;;;;23.17;6.03;;;;;;;13.70;100.00;102033.75;5221252;28;20087;-74
2021/10/12 10:49:04;;;;;;;22.27;5.18;;;;;;;13.69;100.00;102030.19;5220804;28;20029;-71
2021/10/12 10:52:07;;;;;;;26.88;6.30;;;;;;;13.65;100.00;102025.28;5220291;28;20025;-72
2021/10/12 10:54:58;;;;;;;20.30;5.22;;;;;;;13.67;100.00;102018.72;5226345;28;20100;-72
2021/10/12 10:57:30;;;;;;;21.02;4.22;;;;;;;13.84;100.00;102013.44;5220735;28;20104;-71
2021/10/12 11:00:11;;;;;;;18.38;6.22;;;;;;;13.79;100.00;102007.69;5218678;28;20029;-72
2021/10/12 11:02:45;;;;;;;227.10;88.63;;;;;;;13.70;100.00;102017.56;5220539;28;20217;-72
2021/10/12 11:05:30;;;;;;;30.05;11.55;;;;;;;13.68;100.00;102020.41;5220712;28;20214;-73
2021/10/12 11:08:14;;;;;;;22.35;6.72;;;;;;;13.33;100.00;102021.34;5221208;28;20078;-73
2021/10/12 11:10:47;;;;;;;24.77;5.45;;;;;;;13.14;100.00;102019.63;5221662;28;20513;-73
2021/10/12 11:13:27;;;;;;;23.30;5.15;;;;;;;12.90;100.00;102014.88;5221655;28;20056;-73
2021/10/12 11:15:59;;;;;;;19.88;5.00;;;;;;;12.81;100.00;102017.63;5221813;28;20416;-73
2021/10/12 11:18:29;;;;;;;13.43;4.60;;;;;;;12.82;100.00;102013.94;5204057;28;20112;-73
2021/10/12 11:21:03;;;;;;;14.35;3.97;;;;;;;12.84;100.00;102009.22;5220278;28;20104;-73
2021/10/12 11:23:42;;;;;;;16.85;3.88;;;;;;;12.99;100.00;102012.22;5221924;28;20071;-73
2021/10/12 11:26:16;;;;;;;19.73;5.28;;;;;;;13.18;100.00;102004.00;5221687;28;20100;-73
2021/10/12 11:28:51;;;;;;;17.92;3.88;;;;;;;13.23;100.00;101995.47;5221580;28;20036;-72
2021/10/12 11:31:23;;;;;;;;;;;;;;;13.24;100.00;101994.47;5220280;28;20449;-73
2021/10/12 11:33:56;;;;;;;14.63;3.90;;;;;;;13.40;100.00;101997.28;5221213;28;19951;-72
2021/10/12 11:36:29;;;;;;;26.92;3.95;;;;;;;13.43;100.00;101997.00;5221481;28;20441;-73
2021/10/12 11:39:04;;;;;;;13.18;3.58;;;;;;;13.42;100.00;101993.44;5219721;28;20030;-73